sensor_id;sensor_type;location;lat;lon;timestamp;pressure;altitude;pressure_sealevel;temperature;humidity
51986;BME280;38002;53.296;6.600;2024-02-28T00:00:54;102208.69;;;2.20;100.00
51986;BME280;38002;53.296;6.600;2024-02-28T00:05:54;102212.88;;;2.25;100.00
51986;BME280;38002;53.296;6.600;2024-02-28T00:10:55;102209.25;;;2.26;100.00
51986;BME280;38002;53.296;6.600;2024-02-28T00:15:55;102194.88;;;2.27;100.00
51986;BME280;38002;53.296;6.600;2024-02-28T00:20:56;102200.16;;;2.29;100.00
51986;BME280;38002;53.296;6.600;2024-02-28T00:25:56;102209.94;;;2.30;100.00
51986;BME280;38002;53.296;6.600;2024-02-28T00:30:57;102210.75;;;2.32;100.00
51986;BME280;38002;53.296;6.600;2024-02-28T00:35:57;102204.34;;;2.35;100.00
51986;BME280;38002;53.296;6.600;2024-02-28T00:40:58;102189.94;;;2.37;100.00
51986;BME280;38002;53.296;6.600;2024-02-28T00:45:58;102199.88;;;2.35;100.00
51986;BME280;38002;53.296;6.600;2024-02-28T00:50:59;102192.84;;;2.33;100.00
51986;BME280;38002;53.296;6.600;2024-02-28T00:55:59;102182.88;;;2.35;100.00
51986;BME280;38002;53.296;6.600;2024-02-28T01:01:00;102193.47;;;2.38;100.00
51986;BME280;38002;53.296;6.600;2024-02-28T01:06:00;102198.00;;;2.37;100.00
51986;BME280;38002;53.296;6.600;2024-02-28T01:11:01;102195.13;;;2.40;100.00
51986;BME280;38002;53.296;6.600;2024-02-28T01:16:02;102205.16;;;2.37;100.00
51986;BME280;38002;53.296;6.600;2024-02-28T01:21:02;102190.78;;;2.38;100.00
51986;BME280;38002;53.296;6.600;2024-02-28T01:26:04;102188.19;;;2.36;100.00
51986;BME280;38002;53.296;6.600;2024-02-28T01:31:05;102186.38;;;2.37;100.00
51986;BME280;38002;53.296;6.600;2024-02-28T01:36:06;102178.31;;;2.37;100.00
51986;BME280;38002;53.296;6.600;2024-02-28T01:41:07;102181.88;;;2.37;100.00
51986;BME280;38002;53.296;6.600;2024-02-28T01:46:23;102177.59;;;2.33;100.00
51986;BME280;38002;53.296;6.600;2024-02-28T01:51:25;102185.03;;;2.28;100.00
51986;BME280;38002;53.296;6.600;2024-02-28T01:56:27;102180.44;;;2.30;100.00
51986;BME280;38002;53.296;6.600;2024-02-28T02:01:28;102184.94;;;2.29;100.00
51986;BME280;38002;53.296;6.600;2024-02-28T02:06:28;102175.94;;;2.31;100.00
51986;BME280;38002;53.296;6.600;2024-02-28T02:11:29;102175.06;;;2.30;100.00
51986;BME280;38002;53.296;6.600;2024-02-28T02:16:29;102168.75;;;2.31;100.00
51986;BME280;38002;53.296;6.600;2024-02-28T02:21:30;102157.09;;;2.32;100.00
51986;BME280;38002;53.296;6.600;2024-02-28T02:26:34;102160.47;;;2.36;100.00
51986;BME280;38002;53.296;6.600;2024-02-28T02:31:34;102156.03;;;2.35;100.00
51986;BME280;38002;53.296;6.600;2024-02-28T02:36:34;102161.34;;;2.36;100.00
51986;BME280;38002;53.296;6.600;2024-02-28T02:41:35;102158.66;;;2.36;100.00
51986;BME280;38002;53.296;6.600;2024-02-28T02:46:35;102157.72;;;2.37;100.00
51986;BME280;38002;53.296;6.600;2024-02-28T02:51:36;102163.09;;;2.37;100.00
51986;BME280;38002;53.296;6.600;2024-02-28T02:56:36;102161.25;;;2.38;100.00
51986;BME280;38002;53.296;6.600;2024-02-28T03:01:37;102150.44;;;2.39;100.00
51986;BME280;38002;53.296;6.600;2024-02-28T03:06:38;102142.47;;;2.38;100.00
51986;BME280;38002;53.296;6.600;2024-02-28T03:11:38;102147.00;;;2.37;100.00
51986;BME280;38002;53.296;6.600;2024-02-28T03:16:42;102154.94;;;2.39;100.00
51986;BME280;38002;53.296;6.600;2024-02-28T03:21:43;102160.25;;;2.40;100.00
51986;BME280;38002;53.296;6.600;2024-02-28T03:26:43;102153.28;;;2.36;100.00
51986;BME280;38002;53.296;6.600;2024-02-28T03:31:44;102153.44;;;2.33;100.00
51986;BME280;38002;53.296;6.600;2024-02-28T03:36:45;102141.75;;;2.34;100.00
51986;BME280;38002;53.296;6.600;2024-02-28T03:41:46;102154.41;;;2.32;100.00
51986;BME280;38002;53.296;6.600;2024-02-28T03:46:46;102141.84;;;2.33;100.00
51986;BME280;38002;53.296;6.600;2024-02-28T03:51:47;102138.19;;;2.34;100.00
51986;BME280;38002;53.296;6.600;2024-02-28T03:56:47;102136.16;;;2.39;100.00
51986;BME280;38002;53.296;6.600;2024-02-28T04:01:48;102143.19;;;2.41;100.00
51986;BME280;38002;53.296;6.600;2024-02-28T04:06:48;102143.97;;;2.43;100.00
51986;BME280;38002;53.296;6.600;2024-02-28T04:11:49;102150.84;;;2.49;100.00
51986;BME280;38002;53.296;6.600;2024-02-28T04:16:49;102156.00;;;2.53;100.00
51986;BME280;38002;53.296;6.600;2024-02-28T04:21:50;102160.19;;;2.59;100.00
51986;BME280;38002;53.296;6.600;2024-02-28T04:26:51;102157.41;;;2.60;100.00
51986;BME280;38002;53.296;6.600;2024-02-28T04:31:53;102161.53;;;2.67;100.00
51986;BME280;38002;53.296;6.600;2024-02-28T04:36:54;102171.22;;;2.70;100.00
51986;BME280;38002;53.296;6.600;2024-02-28T04:41:54;102170.03;;;2.76;100.00
51986;BME280;38002;53.296;6.600;2024-02-28T04:46:55;102176.00;;;2.81;100.00
51986;BME280;38002;53.296;6.600;2024-02-28T04:51:55;102166.00;;;2.84;100.00
51986;BME280;38002;53.296;6.600;2024-02-28T04:56:56;102166.59;;;2.89;100.00
51986;BME280;38002;53.296;6.600;2024-02-28T05:01:56;102169.03;;;2.94;100.00
51986;BME280;38002;53.296;6.600;2024-02-28T05:06:56;102161.78;;;2.96;100.00
51986;BME280;38002;53.296;6.600;2024-02-28T05:11:57;102171.50;;;2.98;100.00
51986;BME280;38002;53.296;6.600;2024-02-28T05:16:58;102166.06;;;3.00;100.00
51986;BME280;38002;53.296;6.600;2024-02-28T05:21:59;102166.84;;;3.02;100.00
51986;BME280;38002;53.296;6.600;2024-02-28T05:27:01;102160.34;;;3.06;100.00
51986;BME280;38002;53.296;6.600;2024-02-28T05:32:01;102170.06;;;3.08;100.00
51986;BME280;38002;53.296;6.600;2024-02-28T05:37:02;102173.44;;;3.12;100.00
51986;BME280;38002;53.296;6.600;2024-02-28T05:42:03;102166.94;;;3.16;100.00
51986;BME280;38002;53.296;6.600;2024-02-28T05:47:04;102172.09;;;3.20;100.00
51986;BME280;38002;53.296;6.600;2024-02-28T05:52:05;102167.34;;;3.26;100.00
51986;BME280;38002;53.296;6.600;2024-02-28T05:57:05;102169.94;;;3.27;100.00
51986;BME280;38002;53.296;6.600;2024-02-28T06:02:06;102164.47;;;3.29;100.00
51986;BME280;38002;53.296;6.600;2024-02-28T06:07:06;102179.41;;;3.34;100.00
51986;BME280;38002;53.296;6.600;2024-02-28T06:12:07;102168.47;;;3.37;100.00
51986;BME280;38002;53.296;6.600;2024-02-28T06:17:08;102170.03;;;3.41;100.00
51986;BME280;38002;53.296;6.600;2024-02-28T06:22:08;102181.53;;;3.45;100.00
51986;BME280;38002;53.296;6.600;2024-02-28T06:27:09;102181.53;;;3.45;100.00
51986;BME280;38002;53.296;6.600;2024-02-28T06:32:12;102185.84;;;3.47;100.00
51986;BME280;38002;53.296;6.600;2024-02-28T06:37:13;102200.25;;;3.46;100.00
51986;BME280;38002;53.296;6.600;2024-02-28T06:42:14;102202.84;;;3.48;100.00
51986;BME280;38002;53.296;6.600;2024-02-28T06:47:14;102216.22;;;3.49;100.00
51986;BME280;38002;53.296;6.600;2024-02-28T06:52:15;102225.84;;;3.53;100.00
51986;BME280;38002;53.296;6.600;2024-02-28T06:57:15;102221.25;;;3.55;100.00
51986;BME280;38002;53.296;6.600;2024-02-28T07:02:16;102224.63;;;3.59;100.00
51986;BME280;38002;53.296;6.600;2024-02-28T07:07:16;102237.94;;;3.62;100.00
51986;BME280;38002;53.296;6.600;2024-02-28T07:12:17;102235.25;;;3.62;100.00
51986;BME280;38002;53.296;6.600;2024-02-28T07:17:17;102242.00;;;3.69;100.00
51986;BME280;38002;53.296;6.600;2024-02-28T07:22:18;102240.09;;;3.71;100.00
51986;BME280;38002;53.296;6.600;2024-02-28T07:27:22;102243.66;;;3.72;100.00
51986;BME280;38002;53.296;6.600;2024-02-28T07:32:23;102247.91;;;3.76;100.00
51986;BME280;38002;53.296;6.600;2024-02-28T07:37:23;102261.22;;;3.79;100.00
51986;BME280;38002;53.296;6.600;2024-02-28T07:42:24;102256.53;;;3.82;100.00
51986;BME280;38002;53.296;6.600;2024-02-28T07:47:24;102275.88;;;3.89;100.00
51986;BME280;38002;53.296;6.600;2024-02-28T07:52:25;102277.19;;;3.97;100.00
51986;BME280;38002;53.296;6.600;2024-02-28T07:57:25;102268.84;;;4.02;100.00
51986;BME280;38002;53.296;6.600;2024-02-28T08:02:26;102270.28;;;4.09;100.00
51986;BME280;38002;53.296;6.600;2024-02-28T08:07:26;102280.69;;;4.15;100.00
51986;BME280;38002;53.296;6.600;2024-02-28T08:12:27;102290.06;;;4.24;100.00
51986;BME280;38002;53.296;6.600;2024-02-28T08:17:27;102300.50;;;4.30;100.00
51986;BME280;38002;53.296;6.600;2024-02-28T08:22:28;102295.47;;;4.39;100.00
51986;BME280;38002;53.296;6.600;2024-02-28T08:27:29;102288.84;;;4.45;100.00
51986;BME280;38002;53.296;6.600;2024-02-28T08:32:29;102298.47;;;4.49;100.00
51986;BME280;38002;53.296;6.600;2024-02-28T08:37:30;102300.75;;;4.56;100.00
51986;BME280;38002;53.296;6.600;2024-02-28T08:42:30;102311.75;;;4.68;100.00
51986;BME280;38002;53.296;6.600;2024-02-28T08:47:31;102307.41;;;4.81;100.00
51986;BME280;38002;53.296;6.600;2024-02-28T08:52:31;102308.59;;;4.91;100.00
51986;BME280;38002;53.296;6.600;2024-02-28T08:57:33;102310.38;;;5.06;100.00
51986;BME280;38002;53.296;6.600;2024-02-28T09:02:34;102292.31;;;5.22;100.00
51986;BME280;38002;53.296;6.600;2024-02-28T09:07:37;102301.81;;;5.43;100.00
51986;BME280;38002;53.296;6.600;2024-02-28T09:12:37;102292.84;;;5.57;100.00
51986;BME280;38002;53.296;6.600;2024-02-28T09:17:38;102297.41;;;5.71;100.00
51986;BME280;38002;53.296;6.600;2024-02-28T09:22:39;102306.66;;;5.81;100.00
51986;BME280;38002;53.296;6.600;2024-02-28T09:27:40;102317.69;;;5.92;100.00
51986;BME280;38002;53.296;6.600;2024-02-28T09:32:42;102312.00;;;5.97;100.00
51986;BME280;38002;53.296;6.600;2024-02-28T09:37:43;102318.75;;;6.04;100.00
51986;BME280;38002;53.296;6.600;2024-02-28T09:42:50;102321.16;;;6.08;100.00
51986;BME280;38002;53.296;6.600;2024-02-28T09:47:53;102322.72;;;6.12;100.00
51986;BME280;38002;53.296;6.600;2024-02-28T09:52:53;102314.69;;;6.11;100.00
51986;BME280;38002;53.296;6.600;2024-02-28T09:57:54;102315.56;;;6.11;100.00
51986;BME280;38002;53.296;6.600;2024-02-28T10:02:57;102312.56;;;6.16;100.00
51986;BME280;38002;53.296;6.600;2024-02-28T10:07:58;102311.88;;;6.26;100.00
51986;BME280;38002;53.296;6.600;2024-02-28T10:12:59;102316.59;;;6.37;100.00
51986;BME280;38002;53.296;6.600;2024-02-28T10:18:00;102321.84;;;6.53;100.00
51986;BME280;38002;53.296;6.600;2024-02-28T10:23:04;102333.59;;;6.66;100.00
51986;BME280;38002;53.296;6.600;2024-02-28T10:28:05;102326.91;;;6.71;100.00
51986;BME280;38002;53.296;6.600;2024-02-28T10:33:11;102331.91;;;6.77;100.00
51986;BME280;38002;53.296;6.600;2024-02-28T10:38:13;102344.28;;;6.81;100.00
51986;BME280;38002;53.296;6.600;2024-02-28T10:43:16;102333.13;;;6.86;100.00
51986;BME280;38002;53.296;6.600;2024-02-28T10:48:17;102341.06;;;6.89;100.00
51986;BME280;38002;53.296;6.600;2024-02-28T10:53:20;102330.81;;;6.94;100.00
51986;BME280;38002;53.296;6.600;2024-02-28T10:58:22;102330.59;;;6.97;100.00
51986;BME280;38002;53.296;6.600;2024-02-28T11:03:25;102334.03;;;6.99;100.00
51986;BME280;38002;53.296;6.600;2024-02-28T11:08:27;102335.78;;;7.00;100.00
51986;BME280;38002;53.296;6.600;2024-02-28T11:13:29;102325.94;;;6.99;100.00
51986;BME280;38002;53.296;6.600;2024-02-28T11:18:31;102321.84;;;7.06;100.00
51986;BME280;38002;53.296;6.600;2024-02-28T11:23:37;102313.88;;;7.17;100.00
51986;BME280;38002;53.296;6.600;2024-02-28T11:28:38;102312.53;;;7.37;100.00
51986;BME280;38002;53.296;6.600;2024-02-28T11:33:39;102304.41;;;7.50;100.00
51986;BME280;38002;53.296;6.600;2024-02-28T11:38:40;102299.41;;;7.56;100.00
51986;BME280;38002;53.296;6.600;2024-02-28T11:43:40;102287.94;;;7.65;100.00
51986;BME280;38002;53.296;6.600;2024-02-28T11:48:41;102285.56;;;7.86;100.00
51986;BME280;38002;53.296;6.600;2024-02-28T11:53:42;102285.50;;;8.11;100.00
51986;BME280;38002;53.296;6.600;2024-02-28T11:58:54;102275.50;;;8.37;100.00
51986;BME280;38002;53.296;6.600;2024-02-28T12:03:58;102269.06;;;8.51;100.00
51986;BME280;38002;53.296;6.600;2024-02-28T12:08:59;102272.81;;;8.61;100.00
51986;BME280;38002;53.296;6.600;2024-02-28T12:14:04;102273.94;;;8.58;100.00
51986;BME280;38002;53.296;6.600;2024-02-28T12:19:11;102274.13;;;8.55;100.00
51986;BME280;38002;53.296;6.600;2024-02-28T12:24:12;102276.13;;;8.53;100.00
51986;BME280;38002;53.296;6.600;2024-02-28T12:29:13;102269.19;;;8.49;100.00
51986;BME280;38002;53.296;6.600;2024-02-28T12:34:14;102265.31;;;8.41;100.00
51986;BME280;38002;53.296;6.600;2024-02-28T12:39:15;102275.09;;;8.31;100.00
51986;BME280;38002;53.296;6.600;2024-02-28T12:44:16;102270.56;;;8.18;100.00
51986;BME280;38002;53.296;6.600;2024-02-28T12:49:16;102274.91;;;8.08;100.00
51986;BME280;38002;53.296;6.600;2024-02-28T12:54:16;102263.34;;;7.94;100.00
51986;BME280;38002;53.296;6.600;2024-02-28T12:59:18;102262.81;;;7.89;100.00
51986;BME280;38002;53.296;6.600;2024-02-28T13:04:19;102266.81;;;7.83;100.00
51986;BME280;38002;53.296;6.600;2024-02-28T13:09:19;102256.88;;;7.84;100.00
51986;BME280;38002;53.296;6.600;2024-02-28T13:14:22;102256.97;;;7.82;100.00
51986;BME280;38002;53.296;6.600;2024-02-28T13:19:23;102246.91;;;7.71;100.00
51986;BME280;38002;53.296;6.600;2024-02-28T13:24:23;102250.81;;;7.67;100.00
51986;BME280;38002;53.296;6.600;2024-02-28T13:29:24;102241.94;;;7.65;100.00
51986;BME280;38002;53.296;6.600;2024-02-28T13:34:24;102231.00;;;7.67;100.00
51986;BME280;38002;53.296;6.600;2024-02-28T13:39:25;102226.22;;;7.70;100.00
51986;BME280;38002;53.296;6.600;2024-02-28T13:44:26;102219.28;;;7.79;100.00
51986;BME280;38002;53.296;6.600;2024-02-28T13:49:28;102210.59;;;7.87;100.00
51986;BME280;38002;53.296;6.600;2024-02-28T13:54:29;102220.53;;;7.99;100.00
51986;BME280;38002;53.296;6.600;2024-02-28T13:59:30;102210.13;;;8.05;100.00
51986;BME280;38002;53.296;6.600;2024-02-28T14:04:31;102207.19;;;8.08;100.00
51986;BME280;38002;53.296;6.600;2024-02-28T14:09:31;102198.81;;;8.11;100.00
51986;BME280;38002;53.296;6.600;2024-02-28T14:14:32;102196.19;;;8.23;100.00
51986;BME280;38002;53.296;6.600;2024-02-28T14:19:32;102194.44;;;8.34;100.00
51986;BME280;38002;53.296;6.600;2024-02-28T14:24:35;102189.94;;;8.46;100.00
51986;BME280;38002;53.296;6.600;2024-02-28T14:29:38;102172.69;;;8.47;100.00
51986;BME280;38002;53.296;6.600;2024-02-28T14:34:39;102177.25;;;8.46;100.00
51986;BME280;38002;53.296;6.600;2024-02-28T14:39:39;102165.03;;;8.41;100.00
51986;BME280;38002;53.296;6.600;2024-02-28T14:44:39;102169.19;;;8.34;100.00
51986;BME280;38002;53.296;6.600;2024-02-28T14:49:40;102165.72;;;8.32;100.00
51986;BME280;38002;53.296;6.600;2024-02-28T14:54:41;102160.31;;;8.32;100.00
51986;BME280;38002;53.296;6.600;2024-02-28T14:59:41;102163.75;;;8.34;100.00
51986;BME280;38002;53.296;6.600;2024-02-28T15:04:42;102171.78;;;8.35;100.00
51986;BME280;38002;53.296;6.600;2024-02-28T15:09:43;102167.97;;;8.38;100.00
51986;BME280;38002;53.296;6.600;2024-02-28T15:14:43;102182.28;;;8.40;100.00
51986;BME280;38002;53.296;6.600;2024-02-28T15:19:44;102183.50;;;8.36;100.00
51986;BME280;38002;53.296;6.600;2024-02-28T15:24:44;102173.50;;;8.36;100.00
51986;BME280;38002;53.296;6.600;2024-02-28T15:29:45;102169.59;;;8.40;100.00
51986;BME280;38002;53.296;6.600;2024-02-28T15:34:45;102171.88;;;8.34;100.00
51986;BME280;38002;53.296;6.600;2024-02-28T15:39:46;102164.72;;;8.33;100.00
51986;BME280;38002;53.296;6.600;2024-02-28T15:44:46;102163.13;;;8.30;100.00
51986;BME280;38002;53.296;6.600;2024-02-28T15:49:46;102152.59;;;8.26;100.00
51986;BME280;38002;53.296;6.600;2024-02-28T15:54:47;102142.00;;;8.23;100.00
51986;BME280;38002;53.296;6.600;2024-02-28T15:59:47;102131.50;;;8.18;100.00
51986;BME280;38002;53.296;6.600;2024-02-28T16:04:48;102121.75;;;8.15;100.00
51986;BME280;38002;53.296;6.600;2024-02-28T16:09:49;102120.50;;;8.08;100.00
51986;BME280;38002;53.296;6.600;2024-02-28T16:14:50;102126.38;;;8.02;100.00
51986;BME280;38002;53.296;6.600;2024-02-28T16:19:50;102127.94;;;7.94;100.00
51986;BME280;38002;53.296;6.600;2024-02-28T16:24:51;102115.81;;;7.87;100.00
51986;BME280;38002;53.296;6.600;2024-02-28T16:29:51;102100.88;;;7.81;100.00
51986;BME280;38002;53.296;6.600;2024-02-28T16:34:52;102102.09;;;7.77;100.00
51986;BME280;38002;53.296;6.600;2024-02-28T16:39:52;102106.00;;;7.73;100.00
51986;BME280;38002;53.296;6.600;2024-02-28T16:44:53;102103.00;;;7.65;100.00
51986;BME280;38002;53.296;6.600;2024-02-28T16:49:53;102086.34;;;7.58;100.00
51986;BME280;38002;53.296;6.600;2024-02-28T16:54:53;102076.84;;;7.53;100.00
51986;BME280;38002;53.296;6.600;2024-02-28T16:59:54;102090.94;;;7.45;100.00
51986;BME280;38002;53.296;6.600;2024-02-28T17:04:54;102093.09;;;7.40;100.00
51986;BME280;38002;53.296;6.600;2024-02-28T17:09:55;102098.84;;;7.36;100.00
51986;BME280;38002;53.296;6.600;2024-02-28T17:14:55;102085.66;;;7.31;100.00
51986;BME280;38002;53.296;6.600;2024-02-28T17:19:56;102077.78;;;7.28;100.00
51986;BME280;38002;53.296;6.600;2024-02-28T17:24:57;102089.88;;;7.22;100.00
51986;BME280;38002;53.296;6.600;2024-02-28T17:29:58;102089.03;;;7.22;100.00
51986;BME280;38002;53.296;6.600;2024-02-28T17:34:58;102089.16;;;7.20;100.00
51986;BME280;38002;53.296;6.600;2024-02-28T17:40:04;102085.59;;;7.20;100.00
51986;BME280;38002;53.296;6.600;2024-02-28T17:45:05;102084.72;;;7.19;100.00
51986;BME280;38002;53.296;6.600;2024-02-28T17:50:06;102086.66;;;7.17;100.00
51986;BME280;38002;53.296;6.600;2024-02-28T17:55:07;102077.56;;;7.18;100.00
51986;BME280;38002;53.296;6.600;2024-02-28T18:00:09;102081.25;;;7.17;100.00
51986;BME280;38002;53.296;6.600;2024-02-28T18:05:13;102064.47;;;7.12;100.00
51986;BME280;38002;53.296;6.600;2024-02-28T18:10:13;102059.81;;;7.14;100.00
51986;BME280;38002;53.296;6.600;2024-02-28T18:15:14;102056.34;;;7.12;100.00
51986;BME280;38002;53.296;6.600;2024-02-28T18:20:16;102049.25;;;7.11;100.00
51986;BME280;38002;53.296;6.600;2024-02-28T18:25:17;102049.56;;;7.07;100.00
51986;BME280;38002;53.296;6.600;2024-02-28T18:30:17;102045.38;;;7.03;100.00
51986;BME280;38002;53.296;6.600;2024-02-28T18:35:23;102046.44;;;7.00;100.00
51986;BME280;38002;53.296;6.600;2024-02-28T18:40:23;102043.84;;;6.99;100.00
51986;BME280;38002;53.296;6.600;2024-02-28T18:45:26;102048.59;;;6.95;100.00
51986;BME280;38002;53.296;6.600;2024-02-28T18:50:27;102034.56;;;6.90;100.00
51986;BME280;38002;53.296;6.600;2024-02-28T18:55:29;102017.66;;;6.87;100.00
51986;BME280;38002;53.296;6.600;2024-02-28T19:00:29;102024.16;;;6.84;100.00
51986;BME280;38002;53.296;6.600;2024-02-28T19:05:30;102008.28;;;6.79;100.00
51986;BME280;38002;53.296;6.600;2024-02-28T19:10:34;102023.97;;;6.74;100.00
51986;BME280;38002;53.296;6.600;2024-02-28T19:15:35;102025.06;;;6.72;100.00
51986;BME280;38002;53.296;6.600;2024-02-28T19:20:36;102028.81;;;6.69;100.00
51986;BME280;38002;53.296;6.600;2024-02-28T19:25:37;102020.19;;;6.64;100.00
51986;BME280;38002;53.296;6.600;2024-02-28T19:30:38;102023.75;;;6.65;100.00
51986;BME280;38002;53.296;6.600;2024-02-28T19:35:39;102015.75;;;6.63;100.00
51986;BME280;38002;53.296;6.600;2024-02-28T19:40:39;102010.34;;;6.63;100.00
51986;BME280;38002;53.296;6.600;2024-02-28T19:45:40;102008.63;;;6.62;100.00
51986;BME280;38002;53.296;6.600;2024-02-28T19:50:41;102007.00;;;6.60;100.00
51986;BME280;38002;53.296;6.600;2024-02-28T19:55:41;101994.47;;;6.59;100.00
51986;BME280;38002;53.296;6.600;2024-02-28T20:00:42;102000.75;;;6.59;100.00
51986;BME280;38002;53.296;6.600;2024-02-28T20:05:43;102009.72;;;6.60;100.00
51986;BME280;38002;53.296;6.600;2024-02-28T20:10:43;102005.28;;;6.59;100.00
51986;BME280;38002;53.296;6.600;2024-02-28T20:15:44;101995.44;;;6.58;100.00
51986;BME280;38002;53.296;6.600;2024-02-28T20:20:45;101993.69;;;6.57;100.00
51986;BME280;38002;53.296;6.600;2024-02-28T20:25:46;101984.63;;;6.58;100.00
51986;BME280;38002;53.296;6.600;2024-02-28T20:30:48;101970.38;;;6.56;100.00
51986;BME280;38002;53.296;6.600;2024-02-28T20:35:51;101964.84;;;6.57;100.00
51986;BME280;38002;53.296;6.600;2024-02-28T20:40:53;101944.09;;;6.58;100.00
51986;BME280;38002;53.296;6.600;2024-02-28T20:45:53;101953.69;;;6.62;100.00
51986;BME280;38002;53.296;6.600;2024-02-28T20:50:54;101942.88;;;6.62;100.00
51986;BME280;38002;53.296;6.600;2024-02-28T20:55:55;101940.97;;;6.64;100.00
51986;BME280;38002;53.296;6.600;2024-02-28T21:00:55;101926.34;;;6.66;100.00
51986;BME280;38002;53.296;6.600;2024-02-28T21:05:56;101917.91;;;6.71;100.00
51986;BME280;38002;53.296;6.600;2024-02-28T21:10:57;101917.66;;;6.74;100.00
51986;BME280;38002;53.296;6.600;2024-02-28T21:15:57;101913.91;;;6.76;100.00
51986;BME280;38002;53.296;6.600;2024-02-28T21:20:58;101906.66;;;6.77;100.00
51986;BME280;38002;53.296;6.600;2024-02-28T21:25:59;101903.72;;;6.80;100.00
51986;BME280;38002;53.296;6.600;2024-02-28T21:30:59;101890.94;;;6.82;100.00
51986;BME280;38002;53.296;6.600;2024-02-28T21:36:00;101887.28;;;6.83;100.00
51986;BME280;38002;53.296;6.600;2024-02-28T21:41:01;101879.06;;;6.84;100.00
51986;BME280;38002;53.296;6.600;2024-02-28T21:46:02;101871.91;;;6.83;100.00
51986;BME280;38002;53.296;6.600;2024-02-28T21:51:03;101858.16;;;6.87;100.00
51986;BME280;38002;53.296;6.600;2024-02-28T21:56:03;101852.66;;;6.88;100.00
51986;BME280;38002;53.296;6.600;2024-02-28T22:01:04;101842.72;;;6.89;100.00
51986;BME280;38002;53.296;6.600;2024-02-28T22:06:04;101842.59;;;6.90;100.00
51986;BME280;38002;53.296;6.600;2024-02-28T22:11:07;101831.56;;;6.93;100.00
51986;BME280;38002;53.296;6.600;2024-02-28T22:16:07;101826.78;;;6.97;100.00
51986;BME280;38002;53.296;6.600;2024-02-28T22:21:08;101832.06;;;6.98;100.00
51986;BME280;38002;53.296;6.600;2024-02-28T22:26:08;101827.41;;;7.00;100.00
51986;BME280;38002;53.296;6.600;2024-02-28T22:31:09;101819.41;;;6.99;100.00
51986;BME280;38002;53.296;6.600;2024-02-28T22:36:12;101816.47;;;7.02;100.00
51986;BME280;38002;53.296;6.600;2024-02-28T22:41:13;101808.00;;;7.06;100.00
51986;BME280;38002;53.296;6.600;2024-02-28T22:46:13;101803.34;;;7.08;100.00
51986;BME280;38002;53.296;6.600;2024-02-28T22:51:14;101814.03;;;7.10;100.00
51986;BME280;38002;53.296;6.600;2024-02-28T22:56:14;101791.53;;;7.09;100.00
51986;BME280;38002;53.296;6.600;2024-02-28T23:01:15;101783.09;;;7.14;100.00
51986;BME280;38002;53.296;6.600;2024-02-28T23:06:15;101772.16;;;7.15;100.00
51986;BME280;38002;53.296;6.600;2024-02-28T23:11:16;101764.25;;;7.12;100.00
51986;BME280;38002;53.296;6.600;2024-02-28T23:16:17;101756.75;;;7.05;100.00
51986;BME280;38002;53.296;6.600;2024-02-28T23:21:17;101757.22;;;6.99;100.00
51986;BME280;38002;53.296;6.600;2024-02-28T23:26:18;101752.28;;;6.93;100.00
51986;BME280;38002;53.296;6.600;2024-02-28T23:31:18;101745.63;;;6.86;100.00
51986;BME280;38002;53.296;6.600;2024-02-28T23:36:21;101748.44;;;6.84;100.00
51986;BME280;38002;53.296;6.600;2024-02-28T23:41:22;101730.63;;;6.81;100.00
51986;BME280;38002;53.296;6.600;2024-02-28T23:46:22;101731.81;;;6.77;100.00
51986;BME280;38002;53.296;6.600;2024-02-28T23:51:23;101721.47;;;6.71;100.00
51986;BME280;38002;53.296;6.600;2024-02-28T23:56:23;101719.00;;;6.68;100.00
